Anch, Alaska
Current Conditions -  °F | °C
As of 9:43 AM on Wednesday 26 Nov 2014 (Local Time) from PAED Reporting Station
Broken Clouds Broken Clouds  
Wind Chill: -8°   Ceiling: 4100
Heat Index: -4°   Visibility: 10mi
Dew Point: -4°   Wind: 7mph
Humidity: 100%   Direction: 350°N
Pressure: 30.33"   Gusts: NA
Location:  61.2265°N, 149.62°W
Report Text: PAED 261843Z 35006KT 10SM SCT006 BKN041 M04/M04 A3033
Loading
Personal Weather Stations






























Interactive Weather Map New forecast layout! Learn more

10-Day Weather Forecast

Advertisements
Track Severe Weather on mobile